Time;durP1;ratioP1;P1;durP2;ratioP2;P2;SDS_P1;SDS_P2;PMS_P1;PMS_P2;Temp;Humidity;BMP_temperature;BMP_pressure;BME280_temperature;BME280_humidity;BME280_pressure;Samples;Min_cycle;Max_cycle;Signal;HPM_P1;HPM_P2
2023/07/09 00:00:49;;;;;;;14.15;3.28;;;;;;;20.30;100.00;99033.53;5039939;28;20083;-65
2023/07/09 00:03:15;;;;;;;10.27;3.20;;;;;;;20.25;100.00;99038.97;5047534;28;20416;-65
2023/07/09 00:05:41;;;;;;;6.53;2.83;;;;;;;20.18;100.00;99037.53;5054379;28;20053;-65
2023/07/09 00:08:24;;;;;;;6.53;2.80;;;;;;;20.09;100.00;99040.72;5053760;28;20024;-65
2023/07/09 00:10:49;;;;;;;9.57;3.15;;;;;;;20.07;100.00;99042.94;5048208;28;20033;-64
2023/07/09 00:13:15;;;;;;;9.73;2.90;;;;;;;20.02;100.00;99033.81;5049565;28;20035;-65
2023/07/09 00:15:40;;;;;;;18.23;3.80;;;;;;;19.92;100.00;99049.09;5059426;28;20028;-65
2023/07/09 00:18:08;;;;;;;15.73;2.90;;;;;;;19.87;100.00;99040.78;5049023;28;20048;-65
2023/07/09 00:20:33;;;;;;;13.73;2.80;;;;;;;19.81;100.00;99043.75;5050705;28;20024;-64
2023/07/09 00:22:59;;;;;;;7.07;2.75;;;;;;;19.77;100.00;99046.16;5051223;28;20083;-68
2023/07/09 00:25:24;;;;;;;8.23;2.65;;;;;;;19.76;100.00;99044.53;5049258;28;20472;-71
2023/07/09 00:27:51;;;;;;;7.72;3.33;;;;;;;19.79;100.00;99035.75;5053437;28;20384;-65
2023/07/09 00:30:21;;;;;;;6.82;2.90;;;;;;;19.74;100.00;99035.72;5052312;28;20060;-65
2023/07/09 00:32:48;;;;;;;5.15;2.70;;;;;;;19.68;100.00;99048.56;5046629;28;20075;-65
2023/07/09 00:35:15;;;;;;;11.18;3.20;;;;;;;19.60;100.00;99042.66;5047929;28;20020;-65
2023/07/09 00:37:43;;;;;;;9.02;2.95;;;;;;;19.58;100.00;99053.88;5040938;28;20033;-65
2023/07/09 00:40:21;;;;;;;9.00;3.03;;;;;;;19.59;100.00;99046.47;5044632;28;20028;-65
2023/07/09 00:42:49;;;;;;;6.45;2.80;;;;;;;19.60;100.00;99059.13;5048075;28;20315;-65
2023/07/09 00:45:26;;;;;;;6.03;2.57;;;;;;;19.55;100.00;99050.84;5044005;28;20110;-65
2023/07/09 00:48:06;;;;;;;10.35;2.90;;;;;;;19.53;100.00;99056.56;5052452;28;20476;-65
2023/07/09 00:50:50;;;;;;;15.20;2.85;;;;;;;19.48;100.00;99054.59;5051317;28;20374;-65
2023/07/09 00:53:19;;;;;;;8.35;2.85;;;;;;;19.38;100.00;99057.19;5044563;28;20556;-65
2023/07/09 00:55:50;;;;;;;13.10;3.03;;;;;;;19.27;100.00;99055.41;5048076;28;20029;-65
2023/07/09 00:58:17;;;;;;;10.27;2.30;;;;;;;19.12;100.00;99036.81;5058412;28;20086;-65
2023/07/09 01:00:57;;;;;;;4.45;2.60;;;;;;;19.23;100.00;99065.22;5051208;28;20430;-65
2023/07/09 01:03:37;;;;;;;9.90;2.42;;;;;;;19.29;100.00;99066.16;5069841;28;20376;-65
2023/07/09 01:06:05;;;;;;;6.07;2.80;;;;;;;19.35;100.00;99074.16;5047924;28;20443;-64
2023/07/09 01:08:32;;;;;;;8.95;3.13;;;;;;;19.26;100.00;99065.56;5048257;28;20071;-65
2023/07/09 01:10:58;;;;;;;5.93;3.00;;;;;;;19.13;100.00;99070.59;5048997;28;20044;-65
2023/07/09 01:13:26;;;;;;;7.35;3.03;;;;;;;19.11;100.00;99067.25;5044312;28;20483;-65
2023/07/09 01:15:52;;;;;;;6.15;3.03;;;;;;;19.01;100.00;99055.06;5043948;28;20128;-65
2023/07/09 01:18:18;;;;;;;5.55;2.90;;;;;;;18.99;100.00;99059.97;5044360;28;20479;-65
2023/07/09 01:20:43;;;;;;;13.23;2.70;;;;;;;18.99;100.00;99070.94;5062119;28;20112;-65
2023/07/09 01:23:10;;;;;;;7.10;3.40;;;;;;;19.00;100.00;99063.53;5050470;28;20033;-65
2023/07/09 01:25:42;;;;;;;10.18;3.95;;;;;;;18.95;100.00;99064.28;5047109;28;20488;-65
2023/07/09 01:28:08;;;;;;;7.00;2.33;;;;;;;18.94;100.00;99070.88;5045752;28;20044;-65
2023/07/09 01:30:39;;;;;;;6.20;2.83;;;;;;;18.89;100.00;99065.31;5051067;28;20025;-66
2023/07/09 01:33:06;;;;;;;5.43;2.72;;;;;;;18.85;100.00;99066.88;5050740;28;20119;-65
2023/07/09 01:35:34;;;;;;;6.30;2.92;;;;;;;18.83;100.00;99061.63;5051131;28;20028;-66
2023/07/09 01:38:01;;;;;;;8.15;3.17;;;;;;;18.89;100.00;99072.69;5041341;28;20384;-64
2023/07/09 01:40:28;;;;;;;7.47;3.25;;;;;;;18.73;100.00;99064.22;5048663;28;20388;-65
2023/07/09 01:42:55;;;;;;;4.32;2.60;;;;;;;18.67;100.00;99062.44;5043873;28;20036;-65
2023/07/09 01:45:21;;;;;;;5.32;2.92;;;;;;;18.68;100.00;99063.28;5035784;28;20052;-64
2023/07/09 01:47:47;;;;;;;5.32;2.60;;;;;;;18.64;100.00;99065.69;5048895;28;20496;-65
2023/07/09 01:50:12;;;;;;;7.03;3.00;;;;;;;18.62;100.00;99068.69;5057599;28;20033;-65
2023/07/09 01:52:41;;;;;;;6.30;2.95;;;;;;;18.60;100.00;99067.25;5050466;28;20040;-64
2023/07/09 01:55:10;;;;;;;5.57;2.95;;;;;;;18.61;100.00;99069.78;5047284;28;20052;-64
2023/07/09 01:57:36;;;;;;;8.75;2.72;;;;;;;18.59;100.00;99063.69;5049463;28;20036;-65
2023/07/09 02:00:05;;;;;;;7.13;2.95;;;;;;;18.61;100.00;99074.44;5050990;28;20040;-64
2023/07/09 02:02:32;;;;;;;4.97;2.78;;;;;;;18.55;100.00;99073.50;5051684;28;20473;-64
2023/07/09 02:04:59;;;;;;;5.07;3.05;;;;;;;18.47;100.00;99073.94;5049355;28;20037;-64
2023/07/09 02:07:25;;;;;;;4.85;2.65;;;;;;;18.48;100.00;99070.09;5051042;28;20437;-64
2023/07/09 02:09:51;;;;;;;5.30;2.47;;;;;;;18.46;100.00;99075.00;5065814;28;20104;-65
2023/07/09 02:12:18;;;;;;;4.93;2.88;;;;;;;18.40;100.00;99082.28;5046598;28;20030;-65
2023/07/09 02:14:44;;;;;;;7.75;2.78;;;;;;;18.37;100.00;99084.72;5043089;28;20040;-64
2023/07/09 02:17:11;;;;;;;6.00;3.40;;;;;;;18.36;100.00;99083.84;5051627;28;20025;-64
2023/07/09 02:19:37;;;;;;;4.25;2.80;;;;;;;18.36;100.00;99080.28;5053936;28;20083;-64
2023/07/09 02:22:03;;;;;;;4.63;2.63;;;;;;;18.34;100.00;99083.28;5048970;28;20029;-64
2023/07/09 02:24:28;;;;;;;7.05;2.58;;;;;;;18.27;100.00;99074.41;5044873;28;20029;-64
2023/07/09 02:26:54;;;;;;;8.02;2.80;;;;;;;18.20;100.00;99089.31;5051456;28;20029;-65
2023/07/09 02:29:20;;;;;;;7.20;2.50;;;;;;;18.12;100.00;99085.91;5051895;28;20029;-65
2023/07/09 02:31:48;;;;;;;8.05;2.47;;;;;;;18.11;100.00;99092.47;5052181;28;20029;-64
2023/07/09 02:34:13;;;;;;;5.90;2.50;;;;;;;18.12;100.00;99085.91;5051341;28;20120;-64
2023/07/09 02:36:42;;;;;;;5.07;2.28;;;;;;;18.12;100.00;99091.38;5052358;28;20119;-65
2023/07/09 02:39:12;;;;;;;6.00;2.72;;;;;;;18.15;100.00;99088.13;5051240;28;20025;-65
2023/07/09 02:41:41;;;;;;;4.07;2.58;;;;;;;18.09;100.00;99091.88;5054381;28;20067;-65
2023/07/09 02:44:07;;;;;;;5.63;2.30;;;;;;;18.06;100.00;99078.69;5046166;28;20079;-65
2023/07/09 02:46:33;;;;;;;6.07;3.00;;;;;;;18.03;100.00;99089.31;5053256;28;20037;-65
2023/07/09 02:48:58;;;;;;;4.43;2.22;;;;;;;17.95;100.00;99094.09;5053047;28;20031;-65
2023/07/09 02:51:28;;;;;;;6.18;2.50;;;;;;;17.90;100.00;99098.63;5051297;28;20049;-65
2023/07/09 02:53:59;;;;;;;4.82;2.88;;;;;;;17.90;100.00;99102.19;5050577;28;20075;-65
2023/07/09 02:56:24;;;;;;;6.18;2.75;;;;;;;17.91;100.00;99103.84;5047944;28;20464;-65
2023/07/09 02:58:50;;;;;;;6.55;2.72;;;;;;;17.89;100.00;99106.03;5057943;28;20075;-65
2023/07/09 03:01:16;;;;;;;14.82;2.90;;;;;;;17.82;100.00;99104.50;5044363;28;20147;-64
2023/07/09 03:03:42;;;;;;;7.15;2.85;;;;;;;17.74;100.00;99102.94;5052977;28;20070;-65
2023/07/09 03:06:07;;;;;;;9.23;2.95;;;;;;;17.77;100.00;99102.44;5050222;28;20021;-65
2023/07/09 03:08:33;;;;;;;6.57;3.72;;;;;;;17.65;100.00;99107.94;5052831;28;20033;-65
2023/07/09 03:10:59;;;;;;;14.15;3.38;;;;;;;17.62;100.00;99113.06;5051051;28;20119;-65
2023/07/09 03:13:25;;;;;;;5.78;3.15;;;;;;;17.53;100.00;99107.97;5046642;28;20093;-65
2023/07/09 03:15:57;;;;;;;6.32;3.00;;;;;;;17.48;100.00;99109.78;5053079;28;20054;-65
2023/07/09 03:18:23;;;;;;;7.40;3.15;;;;;;;17.51;100.00;99118.31;5063075;28;20265;-65
2023/07/09 03:20:49;;;;;;;4.63;2.88;;;;;;;17.55;100.00;99115.09;5053348;28;20443;-65
2023/07/09 03:23:14;;;;;;;5.97;2.80;;;;;;;17.48;100.00;99104.31;5048081;28;20499;-65
2023/07/09 03:25:44;;;;;;;7.80;3.00;;;;;;;17.43;100.00;99106.94;5047647;28;20025;-65
2023/07/09 03:28:11;;;;;;;10.73;3.35;;;;;;;17.43;100.00;99106.94;5052667;28;20391;-65
2023/07/09 03:30:43;;;;;;;6.15;2.78;;;;;;;17.36;100.00;99108.97;5053092;28;20107;-65
2023/07/09 03:33:09;;;;;;;5.65;3.00;;;;;;;17.34;100.00;99114.66;5046053;28;20025;-65
2023/07/09 03:35:36;;;;;;;4.47;2.80;;;;;;;17.30;100.00;99114.31;5043580;28;20021;-65
2023/07/09 03:38:01;;;;;;;7.88;2.63;;;;;;;17.29;100.00;99117.28;5048895;28;20021;-65
2023/07/09 03:40:27;;;;;;;11.18;3.13;;;;;;;17.28;100.00;99119.19;5049309;28;20082;-65
2023/07/09 03:42:52;;;;;;;6.40;3.20;;;;;;;17.34;100.00;99122.88;5050031;28;20403;-65
2023/07/09 03:45:18;;;;;;;4.22;2.80;;;;;;;17.35;100.00;99123.72;5049782;28;20029;-65
2023/07/09 03:47:43;;;;;;;5.85;3.13;;;;;;;17.32;100.00;99125.03;5048489;28;20147;-65
2023/07/09 03:50:11;;;;;;;5.93;3.00;;;;;;;17.33;100.00;99129.41;5053687;28;20025;-67
2023/07/09 03:52:37;;;;;;;5.63;3.40;;;;;;;17.35;100.00;99132.75;5059742;28;20033;-69
2023/07/09 03:55:04;;;;;;;9.85;3.53;;;;;;;17.30;100.00;99132.63;5050083;28;20518;-64
2023/07/09 03:57:30;;;;;;;7.13;3.00;;;;;;;17.31;100.00;99132.38;5049070;28;20037;-64
2023/07/09 03:59:55;;;;;;;7.88;2.97;;;;;;;17.34;100.00;99131.06;5052710;28;20477;-64
2023/07/09 04:02:21;;;;;;;10.32;2.80;;;;;;;17.35;100.00;99127.28;5053830;28;20114;-64
2023/07/09 04:04:46;;;;;;;4.63;2.80;;;;;;;17.37;100.00;99129.75;5049725;28;20056;-64
2023/07/09 04:07:12;;;;;;;6.78;2.85;;;;;;;17.37;100.00;99118.81;5047507;28;20487;-64
2023/07/09 04:09:38;;;;;;;7.18;2.90;;;;;;;17.40;100.00;99132.03;5046933;28;20170;-64
2023/07/09 04:12:04;;;;;;;8.98;2.83;;;;;;;17.42;100.00;99127.13;5048218;28;20385;-64
2023/07/09 04:14:30;;;;;;;5.72;2.88;;;;;;;17.41;100.00;99131.78;5062638;28;20494;-64
2023/07/09 04:16:57;;;;;;;6.00;2.67;;;;;;;17.47;100.00;99124.50;5123205;22;21514;-74
2023/07/09 04:19:22;;;;;;;8.27;2.67;;;;;;;17.67;100.00;99135.06;5070322;28;20028;-67
2023/07/09 04:21:47;;;;;;;5.03;2.55;;;;;;;17.73;100.00;99121.25;5066780;28;20043;-74
2023/07/09 04:24:15;;;;;;;5.60;2.58;;;;;;;17.81;100.00;99131.00;5049872;28;20622;-72
2023/07/09 04:26:41;;;;;;;13.85;3.22;;;;;;;17.81;100.00;99120.06;5054782;28;20090;-72
2023/07/09 04:29:06;;;;;;;8.55;3.45;;;;;;;17.95;100.00;99129.66;5063238;28;20037;-71
2023/07/09 04:31:31;;;;;;;7.13;2.90;;;;;;;17.97;100.00;99112.97;5061529;28;20371;-71
2023/07/09 04:33:57;;;;;;;7.45;2.90;;;;;;;18.11;100.00;99114.38;5066086;28;20043;-71
2023/07/09 04:36:22;;;;;;;6.60;3.25;;;;;;;18.26;100.00;99126.66;5060602;28;20037;-71
2023/07/09 04:38:48;;;;;;;7.03;2.97;;;;;;;18.43;100.00;99129.47;5049119;28;20086;-71
2023/07/09 04:41:13;;;;;;;4.20;2.63;;;;;;;18.55;100.00;99139.28;5067725;28;20477;-70
2023/07/09 04:43:38;;;;;;;7.95;3.35;;;;;;;18.68;100.00;99129.06;5069243;28;20116;-71
2023/07/09 04:46:03;;;;;;;5.65;2.85;;;;;;;18.84;100.00;99122.81;5074642;28;20028;-72
2023/07/09 04:48:29;;;;;;;8.00;2.92;;;;;;;19.01;100.00;99136.50;5074682;28;20103;-71
2023/07/09 04:50:54;;;;;;;6.95;3.47;;;;;;;18.92;100.00;99133.34;5037236;28;20022;-71
2023/07/09 04:53:20;;;;;;;7.35;3.30;;;;;;;18.76;100.00;99136.94;5061032;28;20107;-70
2023/07/09 04:55:45;;;;;;;8.23;3.65;;;;;;;18.61;100.00;99138.28;5061552;28;20058;-71
2023/07/09 04:58:10;;;;;;;6.57;2.80;;;;;;;18.70;100.00;99114.03;5072126;28;20032;-72
2023/07/09 05:00:36;;;;;;;7.68;3.45;;;;;;;18.84;100.00;99133.78;5053794;28;20533;-71
2023/07/09 05:03:01;;;;;;;7.65;3.38;;;;;;;18.84;100.00;99125.53;5049257;28;20035;-70
2023/07/09 05:05:26;;;;;;;5.75;3.53;;;;;;;19.00;100.00;99141.16;5066288;28;20081;-69
2023/07/09 05:07:52;;;;;;;8.38;3.13;;;;;;;19.00;100.00;99132.91;5066753;28;20116;-73
2023/07/09 05:10:17;;;;;;;6.13;3.08;;;;;;;19.14;100.00;99127.09;5046826;28;20501;-70
2023/07/09 05:12:50;;;;;;;7.43;2.25;;;;;;;19.49;100.00;99144.06;5064520;28;20098;-70
2023/07/09 05:15:16;;;;;;;4.55;2.97;;;;;;;19.76;100.00;99157.09;5067510;28;20442;-70
2023/07/09 05:17:42;;;;;;;5.85;2.85;;;;;;;19.93;100.00;99157.84;5057083;28;20025;-70
2023/07/09 05:20:07;;;;;;;6.70;2.78;;;;;;;20.23;100.00;99142.00;5070079;28;20425;-70
2023/07/09 05:22:33;;;;;;;5.05;2.53;;;;;;;20.31;100.00;99152.50;5060576;28;20036;-70
2023/07/09 05:24:58;;;;;;;4.70;2.38;;;;;;;20.51;100.00;99151.88;5062079;28;20033;-70
2023/07/09 05:27:24;;;;;;;5.60;2.60;;;;;;;20.76;100.00;99143.91;5066775;28;20029;-70
2023/07/09 05:29:49;;;;;;;5.50;2.40;;;;;;;20.99;100.00;99150.16;5065084;28;20028;-70
2023/07/09 05:32:14;;;;;;;7.97;2.97;;;;;;;21.18;100.00;99147.81;5064493;28;20040;-70
2023/07/09 05:34:40;;;;;;;8.23;2.88;;;;;;;21.23;100.00;99143.16;5060958;28;20031;-70
2023/07/09 05:37:05;;;;;;;10.63;3.63;;;;;;;21.10;100.00;99151.88;5070466;28;20028;-70
2023/07/09 05:39:30;;;;;;;8.10;2.75;;;;;;;21.23;100.00;99143.16;5064196;28;20027;-69
2023/07/09 05:41:56;;;;;;;5.07;2.60;;;;;;;21.31;100.00;99119.00;5071855;28;20020;-77
2023/07/09 05:44:21;;;;;;;6.22;2.78;;;;;;;21.62;100.00;99140.13;5060889;28;20035;-77
2023/07/09 05:46:46;;;;;;;5.05;2.90;;;;;;;21.73;100.00;99141.00;5069407;28;21241;-77
2023/07/09 05:49:12;;;;;;;3.63;2.47;;;;;;;21.84;100.00;99137.19;5066721;28;20029;-77
2023/07/09 05:51:37;;;;;;;5.75;2.85;;;;;;;22.19;100.00;99157.75;5063244;28;20029;-76
2023/07/09 05:54:02;;;;;;;4.63;2.72;;;;;;;22.35;100.00;99138.47;5057307;28;20036;-77
2023/07/09 05:56:28;;;;;;;9.18;3.08;;;;;;;22.53;100.00;99152.59;5067653;28;20046;-77
2023/07/09 05:58:54;;;;;;;11.05;3.00;;;;;;;22.80;100.00;99151.50;5049882;28;20056;-77
2023/07/09 06:01:20;;;;;;;3.92;2.40;;;;;;;22.96;100.00;99125.59;5053742;28;20039;-77
2023/07/09 06:03:46;;;;;;;5.65;3.17;;;;;;;23.34;100.00;99148.22;5064495;28;20036;-77
2023/07/09 06:06:12;;;;;;;5.47;2.78;;;;;;;23.63;100.00;99153.09;5066170;28;20029;-77
2023/07/09 06:08:38;;;;;;;6.38;2.95;;;;;;;23.72;100.00;99131.28;5070982;28;20024;-77
2023/07/09 06:11:04;;;;;;;6.07;2.85;;;;;;;23.82;100.00;99109.16;5071720;28;20568;-77
2023/07/09 06:13:33;;;;;;;5.90;3.00;;;;;;;24.30;100.00;99155.63;5053028;28;20109;-77
2023/07/09 06:16:00;;;;;;;5.15;2.78;;;;;;;24.53;100.00;99154.94;5049870;28;20029;-78
2023/07/09 06:18:29;;;;;;;6.20;2.80;;;;;;;24.98;100.00;99141.88;5061334;28;20028;-77
2023/07/09 06:20:57;;;;;;;7.30;2.55;;;;;;;25.38;100.00;99152.88;5064027;28;20032;-77
2023/07/09 06:23:23;;;;;;;9.23;3.08;;;;;;;25.49;100.00;99116.50;5061136;28;20033;-77
2023/07/09 06:25:48;;;;;;;8.75;3.08;;;;;;;25.75;100.00;99144.75;5056543;28;20031;-78
2023/07/09 06:28:19;;;;;;;8.77;3.10;;;;;;;26.09;100.00;99157.63;5049614;28;20043;-77
2023/07/09 06:30:45;;;;;;;6.95;2.83;;;;;;;26.41;100.00;99162.50;5061545;28;20047;-77
2023/07/09 06:33:12;;;;;;;5.25;2.60;;;;;;;26.51;100.00;99138.47;5045283;28;20031;-78
2023/07/09 06:35:39;;;;;;;4.72;2.22;;;;;;;26.93;100.00;99153.41;5052817;28;20117;-77
2023/07/09 06:38:05;;;;;;;7.03;2.38;;;;;;;27.46;100.00;99159.44;5053318;28;20021;-78
2023/07/09 06:40:30;;;;;;;5.90;2.60;;;;;;;27.75;100.00;99138.88;5052508;28;20040;-77
2023/07/09 06:42:57;;;;;;;6.28;2.63;;;;;;;27.90;100.00;99146.09;5040624;28;20025;-77
2023/07/09 06:45:23;;;;;;;3.83;2.63;;;;;;;27.90;100.00;99143.31;5076073;28;20064;-77
2023/07/09 06:47:49;;;;;;;5.28;2.80;;;;;;;27.95;100.00;99148.78;5064802;28;20075;-77
2023/07/09 06:50:15;;;;;;;5.65;2.88;;;;;;;28.69;97.17;99129.06;5063436;28;20032;-77
2023/07/09 06:52:40;;;;;;;4.22;2.42;;;;;;;29.65;86.89;99157.56;5061341;28;20028;-77
2023/07/09 06:55:06;;;;;;;7.50;2.70;;;;;;;31.37;75.50;99137.72;5073599;28;20031;-77
2023/07/09 06:57:32;;;;;;;6.47;2.80;;;;;;;33.56;65.70;99141.50;5053978;28;20025;-77
2023/07/09 06:59:57;;;;;;;5.32;2.50;;;;;;;35.47;56.31;99152.59;5065450;28;20024;-75
2023/07/09 07:02:22;;;;;;;12.13;2.80;;;;;;;35.84;53.09;99149.53;5079690;28;20581;-75
2023/07/09 07:04:47;;;;;;;4.75;2.40;;;;;;;37.35;49.42;99156.53;5074491;28;20027;-76
2023/07/09 07:07:13;;;;;;;6.28;2.28;;;;;;;38.57;45.61;99153.75;5076769;28;20025;-76
2023/07/09 07:09:38;;;;;;;7.05;2.67;;;;;;;39.07;43.19;99153.59;5060593;28;20052;-75
2023/07/09 07:12:04;;;;;;;7.88;2.42;;;;;;;38.32;43.27;99144.88;5048401;28;20029;-75
2023/07/09 07:14:30;;;;;;;6.50;2.53;;;;;;;38.57;42.91;99159.41;5073781;28;20033;-77
2023/07/09 07:16:57;;;;;;;5.90;2.75;;;;;;;38.88;41.50;99160.22;5052799;28;20035;-75
2023/07/09 07:19:22;;;;;;;4.55;2.80;;;;;;;39.85;40.12;99145.13;5052088;28;20056;-75
2023/07/09 07:21:48;;;;;;;4.00;2.67;;;;;;;39.37;40.52;99153.53;5038358;28;20060;-76
2023/07/09 07:24:13;;;;;;;5.17;2.70;;;;;;;40.88;38.40;99134.84;5055035;28;20034;-75
2023/07/09 07:26:38;;;;;;;4.60;2.63;;;;;;;39.86;39.15;99129.75;5054677;28;20683;-75
2023/07/09 07:29:03;;;;;;;6.07;2.58;;;;;;;41.63;37.27;99122.88;5072127;28;20279;-75
2023/07/09 07:31:29;;;;;;;7.73;2.40;;;;;;;42.64;35.19;99130.06;5070497;28;20546;-75
2023/07/09 07:33:54;;;;;;;4.03;2.80;;;;;;;43.02;34.89;99142.50;5070772;28;20287;-75
2023/07/09 07:36:19;;;;;;;4.73;2.40;;;;;;;42.14;35.50;99133.03;5086300;28;20767;-76
2023/07/09 07:38:44;;;;;;;5.45;2.50;;;;;;;42.44;35.38;99126.88;5075996;28;20270;-76
2023/07/09 07:41:11;;;;;;;4.00;2.60;;;;;;;43.62;33.67;99120.63;5054669;28;20077;-76
2023/07/09 07:43:36;;;;;;;4.90;2.25;;;;;;;43.05;34.62;99133.16;5062722;28;20764;-77
2023/07/09 07:46:01;;;;;;;4.30;2.70;;;;;;;44.06;33.23;99124.72;5049558;28;20040;-77
2023/07/09 07:48:27;;;;;;;4.67;2.13;;;;;;;44.58;32.34;99130.31;5060213;28;20319;-78
2023/07/09 07:51:02;;;;;;;4.77;2.13;;;;;;;44.18;32.96;99129.13;5050359;28;20281;-77
2023/07/09 07:53:29;;;;;;;5.65;2.70;;;;;;;45.28;31.29;99126.16;5073744;28;20263;-77
2023/07/09 07:55:56;;;;;;;5.82;2.42;;;;;;;45.45;30.76;99105.06;5049896;28;20021;-76
2023/07/09 07:58:22;;;;;;;4.70;2.30;;;;;;;45.27;30.62;99127.38;5045299;28;20031;-77
2023/07/09 08:00:47;;;;;;;3.55;2.30;;;;;;;45.93;30.06;99125.94;5058782;28;20127;-77
2023/07/09 08:03:13;;;;;;;6.55;2.40;;;;;;;45.64;30.66;99122.75;5073033;28;20056;-76
2023/07/09 08:05:38;;;;;;;3.72;2.33;;;;;;;46.65;30.08;99113.97;5061346;28;20024;-77
2023/07/09 08:08:04;;;;;;;8.30;2.70;;;;;;;46.16;29.85;99105.09;5073418;28;20028;-76
2023/07/09 08:10:29;;;;;;;4.13;2.22;;;;;;;46.46;29.50;99109.06;5053077;28;20052;-77
2023/07/09 08:12:56;;;;;;;6.05;2.13;;;;;;;46.81;28.59;99106.72;5051920;28;20032;-77
2023/07/09 08:15:22;;;;;;;3.72;2.10;;;;;;;46.78;28.46;99103.47;5060182;28;20017;-78
2023/07/09 08:17:48;;;;;;;4.28;2.28;;;;;;;45.42;29.23;99100.22;5058712;28;20044;-78
2023/07/09 08:20:13;;;;;;;4.30;2.13;;;;;;;46.45;28.55;99104.56;5054521;28;20024;-78
2023/07/09 08:22:38;;;;;;;4.95;2.60;;;;;;;45.99;29.21;99101.34;5061119;28;20498;-78
2023/07/09 08:25:04;;;;;;;3.90;2.07;;;;;;;46.05;28.57;99096.72;5055115;28;20020;-78
2023/07/09 08:27:29;;;;;;;6.03;2.25;;;;;;;46.06;27.81;99091.81;5065106;28;20291;-78
2023/07/09 08:29:55;;;;;;;3.33;2.00;;;;;;;45.50;28.60;99089.47;5063904;28;20626;-78
2023/07/09 08:32:20;;;;;;;4.30;1.93;;;;;;;46.36;27.68;99085.13;5058202;28;20344;-78
2023/07/09 08:34:45;;;;;;;4.70;2.27;;;;;;;46.59;28.30;99086.28;5056768;28;20020;-78
2023/07/09 08:37:11;;;;;;;3.50;2.03;;;;;;;46.46;27.98;99092.69;5066009;28;20282;-78
2023/07/09 08:39:36;;;;;;;3.47;2.13;;;;;;;46.02;28.03;99079.66;5061538;28;20023;-78
2023/07/09 08:42:15;;;;;;;4.03;2.13;;;;;;;45.68;28.52;99098.59;5050995;28;20768;-78
2023/07/09 08:45:15;;;;;;;4.10;2.20;;;;;;;46.70;27.51;99101.22;5068788;28;20282;-78
2023/07/09 08:47:49;;;;;;;3.30;2.25;;;;;;;46.51;28.02;99088.50;4990682;28;20556;-79
2023/07/09 08:50:34;;;;;;;5.97;2.28;;;;;;;48.10;26.96;99089.28;5065338;28;20040;-79
2023/07/09 08:53:01;;;;;;;4.70;2.00;;;;;;;47.43;27.62;99090.56;5048765;28;20029;-78
2023/07/09 08:55:35;;;;;;;4.43;2.42;;;;;;;48.25;26.14;99081.91;5040138;28;20017;-78
2023/07/09 08:58:04;;;;;;;5.50;2.28;;;;;;;48.45;26.77;99096.09;5065223;28;20477;-78
2023/07/09 09:00:33;;;;;;;3.72;2.00;;;;;;;48.56;26.78;99084.34;5070931;28;20028;-78
2023/07/09 09:03:08;;;;;;;3.42;2.08;;;;;;;47.40;26.92;99100.03;5062543;28;20028;-80
2023/07/09 09:05:38;;;;;;;5.32;2.20;;;;;;;47.63;26.52;99097.00;5047540;28;20033;-78
2023/07/09 09:08:13;;;;;;;2.47;2.00;;;;;;;47.97;26.24;99097.81;5050578;28;20071;-79
2023/07/09 09:10:51;;;;;;;5.28;2.78;;;;;;;47.97;25.79;99090.00;5050844;28;20694;-78
2023/07/09 09:13:20;;;;;;;6.10;2.47;;;;;;;46.65;26.57;99088.19;5077086;28;20465;-78
2023/07/09 09:15:47;;;;;;;2.65;1.80;;;;;;;46.97;26.71;99101.03;5053853;28;20016;-78
2023/07/09 09:18:28;;;;;;;3.50;2.25;;;;;;;46.78;27.14;99094.09;5064264;28;20028;-78
2023/07/09 09:21:22;;;;;;;5.78;2.33;;;;;;;46.77;27.66;99093.28;5059852;28;20033;-78
2023/07/09 09:23:52;;;;;;;4.63;2.10;;;;;;;48.23;26.50;99090.16;5056718;28;20087;-79
2023/07/09 09:26:23;;;;;;;3.35;2.10;;;;;;;47.12;26.29;99090.88;5046731;28;20028;-78
2023/07/09 09:28:48;;;;;;;3.38;2.20;;;;;;;47.34;26.30;99064.56;5048570;28;20035;-79
2023/07/09 09:31:16;;;;;;;7.00;2.38;;;;;;;46.67;26.41;99093.50;5066794;28;20378;-78
2023/07/09 09:33:43;;;;;;;3.33;2.05;;;;;;;46.87;26.45;99093.47;5042522;28;20022;-79
2023/07/09 09:36:27;;;;;;;;;;;;;;;46.81;25.61;99092.41;5048954;28;20048;-78
2023/07/09 09:38:53;;;;;;;4.05;1.98;;;;;;;47.72;25.14;99089.88;5055674;28;19912;-79
2023/07/09 09:41:24;;;;;;;4.65;2.10;;;;;;;49.08;25.45;99083.97;5071033;28;20085;-79
2023/07/09 09:43:53;;;;;;;2.83;2.00;;;;;;;48.45;25.30;99073.94;5070055;28;20035;-78
2023/07/09 09:46:21;;;;;;;3.08;2.08;;;;;;;48.34;24.79;99067.69;5058359;28;20017;-79
2023/07/09 09:48:49;;;;;;;6.15;2.47;;;;;;;47.54;25.40;99091.13;5069670;28;20424;-79
2023/07/09 09:51:15;;;;;;;3.78;2.20;;;;;;;46.13;26.55;99081.03;5067048;28;20028;-79
2023/07/09 09:53:46;;;;;;;4.80;2.25;;;;;;;48.25;25.86;99076.97;5065447;28;20021;-79
2023/07/09 09:56:19;;;;;;;2.97;1.88;;;;;;;49.47;23.94;99089.69;5045147;28;20048;-79
2023/07/09 09:58:44;;;;;;;3.97;2.22;;;;;;;47.92;24.61;99090.56;5063539;28;20028;-78
2023/07/09 10:01:17;;;;;;;5.38;2.25;;;;;;;48.51;24.83;99079.91;5052759;28;20029;-78
2023/07/09 10:03:46;;;;;;;4.70;2.30;;;;;;;48.86;23.94;99091.59;5070743;28;20507;-78
2023/07/09 10:06:37;;;;;;;3.97;2.17;;;;;;;49.20;23.99;99088.09;5062355;28;20039;-78
2023/07/09 10:09:15;;;;;;;5.50;1.85;;;;;;;49.28;23.84;99077.19;5033243;28;20041;-79
2023/07/09 10:12:15;;;;;;;3.55;1.90;;;;;;;49.24;23.64;99085.91;5060209;28;20036;-78
2023/07/09 10:14:45;;;;;;;3.63;2.03;;;;;;;47.84;23.46;99080.53;5038738;28;20201;-78
2023/07/09 10:17:30;;;;;;;5.32;2.30;;;;;;;47.88;24.57;99072.66;5047544;28;20089;-79
2023/07/09 10:20:02;;;;;;;4.15;2.00;;;;;;;48.35;23.57;99054.97;5055857;23;20049;-77
2023/07/09 10:22:54;;;;;;;6.80;1.75;;;;;;;49.07;22.87;99065.09;5040991;28;20108;-78
2023/07/09 10:25:34;;;;;;;2.97;1.83;;;;;;;50.47;22.35;99060.31;5038398;28;20385;-78
2023/07/09 10:28:15;;;;;;;4.15;2.10;;;;;;;48.99;23.04;99066.59;5049997;28;20050;-77
2023/07/09 10:31:00;;;;;;;3.80;1.73;;;;;;;49.37;21.95;99054.31;5035085;28;20613;-77
2023/07/09 10:33:33;;;;;;;6.65;2.05;;;;;;;48.89;21.90;99056.22;5055689;28;20021;-79
2023/07/09 10:36:17;;;;;;;4.45;2.10;;;;;;;48.03;23.09;99053.78;5051717;28;20032;-77
2023/07/09 10:38:51;;;;;;;3.38;2.05;;;;;;;48.24;22.81;99051.59;5041473;28;20496;-78
2023/07/09 10:41:18;;;;;;;3.55;1.80;;;;;;;50.42;22.04;99055.97;5054620;28;20071;-78
2023/07/09 10:44:14;;;;;;;3.17;2.00;;;;;;;48.42;22.56;99049.03;5048764;28;20109;-77
2023/07/09 10:46:46;;;;;;;3.90;1.83;;;;;;;50.19;21.17;99037.06;5052549;28;20028;-77
2023/07/09 10:49:14;;;;;;;6.57;1.77;;;;;;;49.32;21.27;99029.03;5054024;28;20037;-76
2023/07/09 10:51:53;;;;;;;5.20;2.30;;;;;;;46.68;22.89;99035.78;5036964;28;20477;-77
2023/07/09 10:54:37;;;;;;;3.63;1.80;;;;;;;46.30;22.77;99036.16;5054565;28;20108;-77
2023/07/09 10:57:18;;;;;;;5.65;2.15;;;;;;;47.40;22.32;99031.25;5040854;28;20035;-77
2023/07/09 10:59:48;;;;;;;4.10;2.17;;;;;;;46.18;23.33;99039.69;5048731;28;20040;-78
2023/07/09 11:02:34;;;;;;;4.50;1.80;;;;;;;46.25;22.57;99044.47;5052006;28;20087;-76
2023/07/09 11:05:03;;;;;;;3.15;1.92;;;;;;;47.47;22.16;99038.91;5051236;28;20037;-75
2023/07/09 11:07:48;;;;;;;5.55;2.30;;;;;;;47.99;22.27;99030.13;5053851;28;20025;-75
2023/07/09 11:10:26;;;;;;;5.60;2.35;;;;;;;47.20;22.68;99035.00;5034711;28;20127;-76
2023/07/09 11:13:13;;;;;;;5.85;1.90;;;;;;;48.72;21.27;99024.72;5054397;28;20048;-76
2023/07/09 11:15:42;;;;;;;5.53;2.23;;;;;;;48.91;20.76;99017.19;5055686;28;20115;-76
2023/07/09 11:18:13;;;;;;;6.18;2.50;;;;;;;48.46;20.48;99014.44;5053794;28;20171;-75
2023/07/09 11:20:44;;;;;;;4.18;1.95;;;;;;;49.57;20.70;99008.03;5053873;28;20044;-78
2023/07/09 11:23:23;;;;;;;5.15;2.00;;;;;;;48.22;20.53;99011.88;5053967;28;20040;-77
2023/07/09 11:26:09;;;;;;;3.88;1.70;;;;;;;49.65;19.99;99006.53;5052753;28;20390;-76
2023/07/09 11:28:36;;;;;;;5.22;2.00;;;;;;;48.73;21.12;99014.03;5051044;28;20235;-77
2023/07/09 11:31:31;;;;;;;2.60;1.90;;;;;;;49.49;20.91;98995.16;5047062;28;20410;-78
2023/07/09 11:34:07;;;;;;;3.20;1.85;;;;;;;49.03;21.43;99006.16;5047561;28;20029;-77
2023/07/09 11:36:33;;;;;;;4.38;2.28;;;;;;;48.54;21.10;99000.72;5042393;28;20034;-76